Ravenna, Texas
Current Conditions -  °F | °C
As of 10:15 PM on Friday 19 Dec 2014 (Local Time) from KDUA Reporting Station
Haze Haze  
Wind Chill: 40°   Ceiling: 400
Heat Index: 43°   Visibility: 4mi
Dew Point: 43°   Wind: 5mph
Humidity: 100%   Direction: 340°NNW
Pressure: 30.23"   Gusts: NA
Location:  33.67°N, 96.24°W
Report Text: KDUA 200415Z AUTO 34004KT 4SM BR OVC004 06/06 A3023 RMK AO2
Loading
Personal Weather Stations






























Interactive Weather Map New forecast layout! Learn more

10-Day Weather Forecast

Advertisements
Track Severe Weather on mobile